sensor_id;sensor_type;location;lat;lon;timestamp;P1;durP1;ratioP1;P2;durP2;ratioP2
8042;SDS011;4064;48.132;11.366;2024-03-02T00:00:18;13.20;;;11.38;;
8042;SDS011;4064;48.132;11.366;2024-03-02T00:02:46;15.53;;;13.27;;
8042;SDS011;4064;48.132;11.366;2024-03-02T00:05:18;18.03;;;11.90;;
8042;SDS011;4064;48.132;11.366;2024-03-02T00:07:45;15.93;;;12.50;;
8042;SDS011;4064;48.132;11.366;2024-03-02T00:10:19;16.20;;;13.57;;
8042;SDS011;4064;48.132;11.366;2024-03-02T00:12:50;15.07;;;12.37;;
8042;SDS011;4064;48.132;11.366;2024-03-02T00:18:01;14.87;;;12.77;;
8042;SDS011;4064;48.132;11.366;2024-03-02T00:20:27;17.30;;;12.87;;
8042;SDS011;4064;48.132;11.366;2024-03-02T00:22:55;13.98;;;12.15;;
8042;SDS011;4064;48.132;11.366;2024-03-02T00:25:41;16.40;;;13.10;;
8042;SDS011;4064;48.132;11.366;2024-03-02T00:28:14;14.83;;;12.00;;
8042;SDS011;4064;48.132;11.366;2024-03-02T00:30:57;12.67;;;11.00;;
8042;SDS011;4064;48.132;11.366;2024-03-02T00:33:45;15.63;;;11.70;;
8042;SDS011;4064;48.132;11.366;2024-03-02T00:36:13;16.98;;;12.38;;
8042;SDS011;4064;48.132;11.366;2024-03-02T00:38:47;14.27;;;11.27;;
8042;SDS011;4064;48.132;11.366;2024-03-02T00:41:19;15.68;;;11.85;;
8042;SDS011;4064;48.132;11.366;2024-03-02T00:44:04;13.40;;;11.98;;
8042;SDS011;4064;48.132;11.366;2024-03-02T00:46:37;15.02;;;10.90;;
8042;SDS011;4064;48.132;11.366;2024-03-02T00:49:05;13.40;;;11.97;;
8042;SDS011;4064;48.132;11.366;2024-03-02T00:51:37;15.05;;;11.00;;
8042;SDS011;4064;48.132;11.366;2024-03-02T00:54:04;15.57;;;11.73;;
8042;SDS011;4064;48.132;11.366;2024-03-02T00:56:32;15.70;;;11.70;;
8042;SDS011;4064;48.132;11.366;2024-03-02T00:58:59;12.68;;;11.27;;
8042;SDS011;4064;48.132;11.366;2024-03-02T01:01:25;15.90;;;12.43;;
8042;SDS011;4064;48.132;11.366;2024-03-02T01:03:51;12.83;;;10.90;;
8042;SDS011;4064;48.132;11.366;2024-03-02T01:06:17;12.35;;;10.35;;
8042;SDS011;4064;48.132;11.366;2024-03-02T01:08:44;13.35;;;11.60;;
8042;SDS011;4064;48.132;11.366;2024-03-02T01:11:10;12.15;;;9.90;;
8042;SDS011;4064;48.132;11.366;2024-03-02T01:13:36;11.50;;;10.30;;
8042;SDS011;4064;48.132;11.366;2024-03-02T01:16:01;14.43;;;10.57;;
8042;SDS011;4064;48.132;11.366;2024-03-02T01:18:28;14.70;;;11.98;;
8042;SDS011;4064;48.132;11.366;2024-03-02T01:20:53;12.73;;;11.43;;
8042;SDS011;4064;48.132;11.366;2024-03-02T01:23:22;12.55;;;10.68;;
8042;SDS011;4064;48.132;11.366;2024-03-02T01:25:49;15.23;;;12.65;;
8042;SDS011;4064;48.132;11.366;2024-03-02T01:28:15;13.52;;;11.60;;
8042;SDS011;4064;48.132;11.366;2024-03-02T01:30:41;16.63;;;11.63;;
8042;SDS011;4064;48.132;11.366;2024-03-02T01:33:07;14.50;;;11.80;;
8042;SDS011;4064;48.132;11.366;2024-03-02T01:35:33;13.00;;;11.20;;
8042;SDS011;4064;48.132;11.366;2024-03-02T01:38:00;17.98;;;11.35;;
8042;SDS011;4064;48.132;11.366;2024-03-02T01:40:27;14.40;;;11.05;;
8042;SDS011;4064;48.132;11.366;2024-03-02T01:42:53;13.57;;;10.80;;
8042;SDS011;4064;48.132;11.366;2024-03-02T01:45:19;14.30;;;11.55;;
8042;SDS011;4064;48.132;11.366;2024-03-02T01:47:45;14.53;;;11.17;;
8042;SDS011;4064;48.132;11.366;2024-03-02T01:50:11;12.37;;;10.40;;
8042;SDS011;4064;48.132;11.366;2024-03-02T01:52:38;16.03;;;10.93;;
8042;SDS011;4064;48.132;11.366;2024-03-02T01:55:04;14.60;;;11.60;;
8042;SDS011;4064;48.132;11.366;2024-03-02T01:57:31;13.53;;;10.90;;
8042;SDS011;4064;48.132;11.366;2024-03-02T01:59:57;13.87;;;12.47;;
8042;SDS011;4064;48.132;11.366;2024-03-02T02:02:23;14.33;;;10.30;;
8042;SDS011;4064;48.132;11.366;2024-03-02T02:04:49;14.00;;;10.87;;
8042;SDS011;4064;48.132;11.366;2024-03-02T02:07:14;11.23;;;10.07;;
8042;SDS011;4064;48.132;11.366;2024-03-02T02:09:43;11.53;;;10.33;;
8042;SDS011;4064;48.132;11.366;2024-03-02T02:12:09;14.40;;;11.40;;
8042;SDS011;4064;48.132;11.366;2024-03-02T02:14:35;17.98;;;11.32;;
8042;SDS011;4064;48.132;11.366;2024-03-02T02:17:01;13.00;;;10.50;;
8042;SDS011;4064;48.132;11.366;2024-03-02T02:19:27;13.60;;;10.40;;
8042;SDS011;4064;48.132;11.366;2024-03-02T02:21:52;14.10;;;11.53;;
8042;SDS011;4064;48.132;11.366;2024-03-02T02:24:18;14.97;;;11.63;;
8042;SDS011;4064;48.132;11.366;2024-03-02T02:26:44;14.53;;;12.07;;
8042;SDS011;4064;48.132;11.366;2024-03-02T02:29:09;13.57;;;11.50;;
8042;SDS011;4064;48.132;11.366;2024-03-02T02:31:41;15.53;;;11.37;;
8042;SDS011;4064;48.132;11.366;2024-03-02T02:34:07;12.55;;;10.95;;
8042;SDS011;4064;48.132;11.366;2024-03-02T02:36:34;13.98;;;11.35;;
8042;SDS011;4064;48.132;11.366;2024-03-02T02:39:03;15.70;;;11.45;;
8042;SDS011;4064;48.132;11.366;2024-03-02T02:41:30;15.73;;;12.50;;
8042;SDS011;4064;48.132;11.366;2024-03-02T02:43:56;14.60;;;11.03;;
8042;SDS011;4064;48.132;11.366;2024-03-02T02:46:21;13.65;;;11.73;;
8042;SDS011;4064;48.132;11.366;2024-03-02T02:48:47;16.00;;;10.33;;
8042;SDS011;4064;48.132;11.366;2024-03-02T02:51:13;14.63;;;12.37;;
8042;SDS011;4064;48.132;11.366;2024-03-02T02:53:39;12.60;;;11.30;;
8042;SDS011;4064;48.132;11.366;2024-03-02T02:56:07;14.60;;;11.90;;
8042;SDS011;4064;48.132;11.366;2024-03-02T02:58:33;12.10;;;10.77;;
8042;SDS011;4064;48.132;11.366;2024-03-02T03:00:58;14.50;;;10.60;;
8042;SDS011;4064;48.132;11.366;2024-03-02T03:03:24;13.43;;;11.70;;
8042;SDS011;4064;48.132;11.366;2024-03-02T03:05:50;17.23;;;12.17;;
8042;SDS011;4064;48.132;11.366;2024-03-02T03:08:15;15.77;;;12.80;;
8042;SDS011;4064;48.132;11.366;2024-03-02T03:10:41;17.50;;;13.70;;
8042;SDS011;4064;48.132;11.366;2024-03-02T03:13:07;17.70;;;12.80;;
8042;SDS011;4064;48.132;11.366;2024-03-02T03:15:37;15.07;;;12.70;;
8042;SDS011;4064;48.132;11.366;2024-03-02T03:18:03;18.63;;;13.70;;
8042;SDS011;4064;48.132;11.366;2024-03-02T03:20:29;18.98;;;15.05;;
8042;SDS011;4064;48.132;11.366;2024-03-02T03:22:55;17.67;;;13.18;;
8042;SDS011;4064;48.132;11.366;2024-03-02T03:25:22;14.35;;;12.57;;
8042;SDS011;4064;48.132;11.366;2024-03-02T03:27:48;17.63;;;13.48;;
8042;SDS011;4064;48.132;11.366;2024-03-02T03:30:17;17.33;;;14.43;;
8042;SDS011;4064;48.132;11.366;2024-03-02T03:32:43;17.50;;;14.20;;
8042;SDS011;4064;48.132;11.366;2024-03-02T03:35:09;17.50;;;13.63;;
8042;SDS011;4064;48.132;11.366;2024-03-02T03:37:35;16.17;;;12.53;;
8042;SDS011;4064;48.132;11.366;2024-03-02T03:40:01;14.97;;;12.23;;
8042;SDS011;4064;48.132;11.366;2024-03-02T03:42:28;13.80;;;12.07;;
8042;SDS011;4064;48.132;11.366;2024-03-02T03:44:53;18.93;;;13.43;;
8042;SDS011;4064;48.132;11.366;2024-03-02T03:47:19;18.70;;;12.30;;
8042;SDS011;4064;48.132;11.366;2024-03-02T03:49:45;16.77;;;12.50;;
8042;SDS011;4064;48.132;11.366;2024-03-02T03:52:11;21.53;;;13.97;;
8042;SDS011;4064;48.132;11.366;2024-03-02T03:54:37;18.27;;;14.23;;
8042;SDS011;4064;48.132;11.366;2024-03-02T03:57:03;15.23;;;13.15;;
8042;SDS011;4064;48.132;11.366;2024-03-02T03:59:29;14.40;;;11.80;;
8042;SDS011;4064;48.132;11.366;2024-03-02T04:01:55;15.73;;;12.27;;
8042;SDS011;4064;48.132;11.366;2024-03-02T04:04:21;18.03;;;13.20;;
8042;SDS011;4064;48.132;11.366;2024-03-02T04:06:47;16.43;;;13.83;;
8042;SDS011;4064;48.132;11.366;2024-03-02T04:09:13;17.07;;;12.70;;
8042;SDS011;4064;48.132;11.366;2024-03-02T04:11:38;20.40;;;13.70;;
8042;SDS011;4064;48.132;11.366;2024-03-02T04:14:04;18.00;;;14.50;;
8042;SDS011;4064;48.132;11.366;2024-03-02T04:16:31;17.30;;;12.13;;
8042;SDS011;4064;48.132;11.366;2024-03-02T04:18:56;16.17;;;13.20;;
8042;SDS011;4064;48.132;11.366;2024-03-02T04:21:22;18.27;;;13.97;;
8042;SDS011;4064;48.132;11.366;2024-03-02T04:23:48;15.50;;;11.57;;
8042;SDS011;4064;48.132;11.366;2024-03-02T04:26:14;20.63;;;12.87;;
8042;SDS011;4064;48.132;11.366;2024-03-02T04:28:44;16.53;;;12.00;;
8042;SDS011;4064;48.132;11.366;2024-03-02T04:31:10;15.90;;;12.67;;
8042;SDS011;4064;48.132;11.366;2024-03-02T04:33:35;16.53;;;13.73;;
8042;SDS011;4064;48.132;11.366;2024-03-02T04:36:01;18.33;;;13.80;;
8042;SDS011;4064;48.132;11.366;2024-03-02T04:38:27;16.83;;;14.30;;
8042;SDS011;4064;48.132;11.366;2024-03-02T04:40:53;19.67;;;14.40;;
8042;SDS011;4064;48.132;11.366;2024-03-02T04:43:19;15.57;;;12.40;;
8042;SDS011;4064;48.132;11.366;2024-03-02T04:45:45;15.93;;;12.53;;
8042;SDS011;4064;48.132;11.366;2024-03-02T04:48:10;18.03;;;13.10;;
8042;SDS011;4064;48.132;11.366;2024-03-02T04:50:36;18.43;;;13.30;;
8042;SDS011;4064;48.132;11.366;2024-03-02T04:53:02;16.70;;;12.47;;
8042;SDS011;4064;48.132;11.366;2024-03-02T04:55:28;16.87;;;14.43;;
8042;SDS011;4064;48.132;11.366;2024-03-02T04:57:53;15.30;;;12.37;;
8042;SDS011;4064;48.132;11.366;2024-03-02T05:00:22;17.35;;;13.75;;
8042;SDS011;4064;48.132;11.366;2024-03-02T05:02:47;18.50;;;14.47;;
8042;SDS011;4064;48.132;11.366;2024-03-02T05:05:13;21.50;;;17.60;;
8042;SDS011;4064;48.132;11.366;2024-03-02T05:07:42;21.77;;;15.87;;
8042;SDS011;4064;48.132;11.366;2024-03-02T05:10:09;17.53;;;13.73;;
8042;SDS011;4064;48.132;11.366;2024-03-02T05:12:35;23.98;;;16.75;;
8042;SDS011;4064;48.132;11.366;2024-03-02T05:15:09;18.80;;;15.33;;
8042;SDS011;4064;48.132;11.366;2024-03-02T05:17:36;16.40;;;13.27;;
8042;SDS011;4064;48.132;11.366;2024-03-02T05:20:03;20.40;;;14.27;;
8042;SDS011;4064;48.132;11.366;2024-03-02T05:22:30;16.93;;;14.50;;
8042;SDS011;4064;48.132;11.366;2024-03-02T05:24:55;16.97;;;12.00;;
8042;SDS011;4064;48.132;11.366;2024-03-02T05:27:21;20.03;;;13.70;;
8042;SDS011;4064;48.132;11.366;2024-03-02T05:29:47;16.43;;;13.33;;
8042;SDS011;4064;48.132;11.366;2024-03-02T05:32:13;18.03;;;14.87;;
8042;SDS011;4064;48.132;11.366;2024-03-02T05:34:38;15.60;;;13.60;;
8042;SDS011;4064;48.132;11.366;2024-03-02T05:37:04;19.77;;;13.83;;
8042;SDS011;4064;48.132;11.366;2024-03-02T05:39:30;18.70;;;15.10;;
8042;SDS011;4064;48.132;11.366;2024-03-02T05:41:55;15.80;;;13.13;;
8042;SDS011;4064;48.132;11.366;2024-03-02T05:44:21;18.80;;;14.40;;
8042;SDS011;4064;48.132;11.366;2024-03-02T05:46:47;18.00;;;13.17;;
8042;SDS011;4064;48.132;11.366;2024-03-02T05:49:13;22.90;;;14.10;;
8042;SDS011;4064;48.132;11.366;2024-03-02T05:51:39;19.50;;;13.40;;
8042;SDS011;4064;48.132;11.366;2024-03-02T05:54:05;18.30;;;14.50;;
8042;SDS011;4064;48.132;11.366;2024-03-02T05:56:31;15.27;;;12.90;;
8042;SDS011;4064;48.132;11.366;2024-03-02T05:58:57;17.52;;;14.73;;
8042;SDS011;4064;48.132;11.366;2024-03-02T06:01:33;19.93;;;14.27;;
8042;SDS011;4064;48.132;11.366;2024-03-02T06:03:58;15.37;;;13.27;;
8042;SDS011;4064;48.132;11.366;2024-03-02T06:06:24;17.00;;;14.00;;
8042;SDS011;4064;48.132;11.366;2024-03-02T06:08:50;17.57;;;13.90;;
8042;SDS011;4064;48.132;11.366;2024-03-02T06:11:16;15.65;;;13.27;;
8042;SDS011;4064;48.132;11.366;2024-03-02T06:13:44;17.43;;;12.97;;
8042;SDS011;4064;48.132;11.366;2024-03-02T06:16:10;15.70;;;12.87;;
8042;SDS011;4064;48.132;11.366;2024-03-02T06:18:36;16.60;;;12.40;;
8042;SDS011;4064;48.132;11.366;2024-03-02T06:21:01;17.03;;;13.60;;
8042;SDS011;4064;48.132;11.366;2024-03-02T06:23:27;16.80;;;14.05;;
8042;SDS011;4064;48.132;11.366;2024-03-02T06:25:53;16.57;;;14.77;;
8042;SDS011;4064;48.132;11.366;2024-03-02T06:28:19;15.93;;;12.20;;
8042;SDS011;4064;48.132;11.366;2024-03-02T06:30:45;14.95;;;12.07;;
8042;SDS011;4064;48.132;11.366;2024-03-02T06:33:11;15.67;;;12.37;;
8042;SDS011;4064;48.132;11.366;2024-03-02T06:35:37;19.57;;;15.00;;
8042;SDS011;4064;48.132;11.366;2024-03-02T06:38:04;16.13;;;12.43;;
8042;SDS011;4064;48.132;11.366;2024-03-02T06:40:29;14.03;;;11.90;;
8042;SDS011;4064;48.132;11.366;2024-03-02T06:42:55;14.97;;;12.40;;
8042;SDS011;4064;48.132;11.366;2024-03-02T06:45:21;16.93;;;11.80;;
8042;SDS011;4064;48.132;11.366;2024-03-02T06:47:46;15.43;;;13.33;;
8042;SDS011;4064;48.132;11.366;2024-03-02T06:50:12;14.47;;;12.57;;
8042;SDS011;4064;48.132;11.366;2024-03-02T06:52:38;15.17;;;11.33;;
8042;SDS011;4064;48.132;11.366;2024-03-02T06:55:04;14.10;;;12.18;;
8042;SDS011;4064;48.132;11.366;2024-03-02T06:57:30;14.90;;;12.70;;
8042;SDS011;4064;48.132;11.366;2024-03-02T06:59:56;16.07;;;12.80;;
8042;SDS011;4064;48.132;11.366;2024-03-02T07:02:24;18.40;;;14.80;;
8042;SDS011;4064;48.132;11.366;2024-03-02T07:04:52;16.08;;;12.77;;
8042;SDS011;4064;48.132;11.366;2024-03-02T07:07:18;17.87;;;13.47;;
8042;SDS011;4064;48.132;11.366;2024-03-02T07:18:16;16.70;;;12.73;;
8042;SDS011;4064;48.132;11.366;2024-03-02T07:20:42;13.40;;;12.00;;
8042;SDS011;4064;48.132;11.366;2024-03-02T07:23:08;15.87;;;13.50;;
8042;SDS011;4064;48.132;11.366;2024-03-02T07:25:34;12.87;;;11.50;;
8042;SDS011;4064;48.132;11.366;2024-03-02T07:27:59;12.67;;;10.00;;
8042;SDS011;4064;48.132;11.366;2024-03-02T07:30:25;12.07;;;10.57;;
8042;SDS011;4064;48.132;11.366;2024-03-02T07:32:51;12.00;;;10.30;;
8042;SDS011;4064;48.132;11.366;2024-03-02T07:35:17;11.40;;;9.57;;
8042;SDS011;4064;48.132;11.366;2024-03-02T07:37:43;9.90;;;9.00;;
8042;SDS011;4064;48.132;11.366;2024-03-02T07:40:09;9.80;;;8.77;;
8042;SDS011;4064;48.132;11.366;2024-03-02T07:42:39;9.43;;;8.43;;
8042;SDS011;4064;48.132;11.366;2024-03-02T07:45:05;9.63;;;8.63;;
8042;SDS011;4064;48.132;11.366;2024-03-02T07:47:32;9.47;;;8.47;;
8042;SDS011;4064;48.132;11.366;2024-03-02T07:50:01;9.77;;;8.77;;
8042;SDS011;4064;48.132;11.366;2024-03-02T07:52:27;9.60;;;8.40;;
8042;SDS011;4064;48.132;11.366;2024-03-02T07:54:54;9.47;;;8.43;;
8042;SDS011;4064;48.132;11.366;2024-03-02T07:57:20;10.47;;;9.43;;
8042;SDS011;4064;48.132;11.366;2024-03-02T07:59:46;12.27;;;11.10;;
8042;SDS011;4064;48.132;11.366;2024-03-02T08:02:12;10.73;;;9.70;;
8042;SDS011;4064;48.132;11.366;2024-03-02T08:04:38;10.93;;;9.03;;
8042;SDS011;4064;48.132;11.366;2024-03-02T08:07:04;10.10;;;9.10;;
8042;SDS011;4064;48.132;11.366;2024-03-02T08:09:29;10.53;;;9.43;;
8042;SDS011;4064;48.132;11.366;2024-03-02T08:11:55;10.33;;;9.07;;
8042;SDS011;4064;48.132;11.366;2024-03-02T08:14:22;16.73;;;9.40;;
8042;SDS011;4064;48.132;11.366;2024-03-02T08:16:48;9.97;;;8.97;;
8042;SDS011;4064;48.132;11.366;2024-03-02T08:19:14;10.47;;;9.17;;
8042;SDS011;4064;48.132;11.366;2024-03-02T08:21:40;9.40;;;7.87;;
8042;SDS011;4064;48.132;11.366;2024-03-02T08:24:06;8.80;;;7.80;;
8042;SDS011;4064;48.132;11.366;2024-03-02T08:26:32;8.90;;;7.80;;
8042;SDS011;4064;48.132;11.366;2024-03-02T08:28:58;8.00;;;7.20;;
8042;SDS011;4064;48.132;11.366;2024-03-02T08:31:24;8.90;;;8.10;;
8042;SDS011;4064;48.132;11.366;2024-03-02T08:33:50;8.33;;;7.53;;
8042;SDS011;4064;48.132;11.366;2024-03-02T08:36:15;8.27;;;7.40;;
8042;SDS011;4064;48.132;11.366;2024-03-02T08:38:41;7.83;;;7.13;;
8042;SDS011;4064;48.132;11.366;2024-03-02T08:41:07;9.60;;;8.73;;
8042;SDS011;4064;48.132;11.366;2024-03-02T08:43:33;7.87;;;7.00;;
8042;SDS011;4064;48.132;11.366;2024-03-02T08:45:59;8.00;;;7.23;;
8042;SDS011;4064;48.132;11.366;2024-03-02T08:48:24;7.50;;;6.73;;
8042;SDS011;4064;48.132;11.366;2024-03-02T08:50:50;7.77;;;7.07;;
8042;SDS011;4064;48.132;11.366;2024-03-02T08:53:16;7.20;;;6.60;;
8042;SDS011;4064;48.132;11.366;2024-03-02T08:55:44;6.90;;;6.30;;
8042;SDS011;4064;48.132;11.366;2024-03-02T08:58:12;7.53;;;6.83;;
8042;SDS011;4064;48.132;11.366;2024-03-02T09:00:38;7.90;;;7.20;;
8042;SDS011;4064;48.132;11.366;2024-03-02T09:03:04;8.20;;;7.40;;
8042;SDS011;4064;48.132;11.366;2024-03-02T09:05:30;7.97;;;7.17;;
8042;SDS011;4064;48.132;11.366;2024-03-02T09:07:55;8.03;;;7.33;;
8042;SDS011;4064;48.132;11.366;2024-03-02T09:10:21;9.17;;;8.37;;
8042;SDS011;4064;48.132;11.366;2024-03-02T09:12:47;8.30;;;7.60;;
8042;SDS011;4064;48.132;11.366;2024-03-02T09:15:12;7.43;;;6.83;;
8042;SDS011;4064;48.132;11.366;2024-03-02T09:17:38;10.53;;;9.47;;
8042;SDS011;4064;48.132;11.366;2024-03-02T09:20:04;8.10;;;7.40;;
8042;SDS011;4064;48.132;11.366;2024-03-02T09:22:30;9.03;;;8.23;;
8042;SDS011;4064;48.132;11.366;2024-03-02T09:24:57;8.50;;;7.70;;
8042;SDS011;4064;48.132;11.366;2024-03-02T09:27:23;14.63;;;7.97;;
8042;SDS011;4064;48.132;11.366;2024-03-02T09:29:49;9.10;;;8.30;;
8042;SDS011;4064;48.132;11.366;2024-03-02T09:32:14;8.50;;;7.70;;
8042;SDS011;4064;48.132;11.366;2024-03-02T09:34:41;10.60;;;8.83;;
8042;SDS011;4064;48.132;11.366;2024-03-02T09:37:06;8.40;;;7.30;;
8042;SDS011;4064;48.132;11.366;2024-03-02T09:39:32;7.77;;;6.97;;
8042;SDS011;4064;48.132;11.366;2024-03-02T09:41:58;7.60;;;6.87;;
8042;SDS011;4064;48.132;11.366;2024-03-02T09:44:25;9.27;;;8.37;;
8042;SDS011;4064;48.132;11.366;2024-03-02T09:46:51;9.33;;;8.40;;
8042;SDS011;4064;48.132;11.366;2024-03-02T09:49:17;10.53;;;8.57;;
8042;SDS011;4064;48.132;11.366;2024-03-02T09:51:49;10.67;;;9.53;;
8042;SDS011;4064;48.132;11.366;2024-03-02T09:54:17;14.20;;;11.03;;
8042;SDS011;4064;48.132;11.366;2024-03-02T09:56:46;11.20;;;9.23;;
8042;SDS011;4064;48.132;11.366;2024-03-02T09:59:12;13.50;;;10.60;;
8042;SDS011;4064;48.132;11.366;2024-03-02T10:01:54;12.00;;;10.20;;
8042;SDS011;4064;48.132;11.366;2024-03-02T10:04:27;11.40;;;10.30;;
8042;SDS011;4064;48.132;11.366;2024-03-02T10:09:41;11.23;;;10.03;;
8042;SDS011;4064;48.132;11.366;2024-03-02T10:12:08;11.20;;;9.80;;
8042;SDS011;4064;48.132;11.366;2024-03-02T10:14:35;12.40;;;11.10;;
8042;SDS011;4064;48.132;11.366;2024-03-02T10:17:04;11.87;;;10.73;;
8042;SDS011;4064;48.132;11.366;2024-03-02T10:19:34;12.43;;;11.13;;
8042;SDS011;4064;48.132;11.366;2024-03-02T10:22:02;12.30;;;11.00;;
8042;SDS011;4064;48.132;11.366;2024-03-02T10:24:41;13.57;;;12.17;;
8042;SDS011;4064;48.132;11.366;2024-03-02T10:29:42;11.90;;;10.70;;
8042;SDS011;4064;48.132;11.366;2024-03-02T10:32:10;13.10;;;11.60;;
8042;SDS011;4064;48.132;11.366;2024-03-02T10:34:37;13.87;;;12.17;;
8042;SDS011;4064;48.132;11.366;2024-03-02T10:37:05;14.00;;;12.13;;
8042;SDS011;4064;48.132;11.366;2024-03-02T10:39:32;11.70;;;10.60;;
8042;SDS011;4064;48.132;11.366;2024-03-02T10:42:04;13.07;;;11.53;;
8042;SDS011;4064;48.132;11.366;2024-03-02T10:44:31;11.97;;;10.50;;
8042;SDS011;4064;48.132;11.366;2024-03-02T10:47:01;11.30;;;10.10;;
8042;SDS011;4064;48.132;11.366;2024-03-02T10:49:29;13.00;;;11.70;;
8042;SDS011;4064;48.132;11.366;2024-03-02T10:51:57;11.23;;;8.93;;
8042;SDS011;4064;48.132;11.366;2024-03-02T10:54:26;10.63;;;9.63;;
8042;SDS011;4064;48.132;11.366;2024-03-02T10:56:53;10.40;;;9.20;;
8042;SDS011;4064;48.132;11.366;2024-03-02T11:01:59;9.70;;;8.70;;
8042;SDS011;4064;48.132;11.366;2024-03-02T11:04:27;8.57;;;7.70;;
8042;SDS011;4064;48.132;11.366;2024-03-02T11:07:04;9.17;;;7.50;;
8042;SDS011;4064;48.132;11.366;2024-03-02T11:09:33;8.40;;;7.60;;
8042;SDS011;4064;48.132;11.366;2024-03-02T11:12:06;9.10;;;8.20;;
8042;SDS011;4064;48.132;11.366;2024-03-02T11:14:40;10.67;;;7.60;;
8042;SDS011;4064;48.132;11.366;2024-03-02T11:17:09;7.83;;;7.10;;
8042;SDS011;4064;48.132;11.366;2024-03-02T11:19:38;8.87;;;8.07;;
8042;SDS011;4064;48.132;11.366;2024-03-02T11:22:05;7.00;;;6.30;;
8042;SDS011;4064;48.132;11.366;2024-03-02T11:24:32;8.00;;;7.27;;
8042;SDS011;4064;48.132;11.366;2024-03-02T11:26:58;7.33;;;5.90;;
8042;SDS011;4064;48.132;11.366;2024-03-02T11:32:02;9.13;;;6.67;;
8042;SDS011;4064;48.132;11.366;2024-03-02T11:34:35;5.67;;;5.07;;
8042;SDS011;4064;48.132;11.366;2024-03-02T11:37:01;7.57;;;6.87;;
8042;SDS011;4064;48.132;11.366;2024-03-02T11:39:28;6.03;;;5.27;;
8042;SDS011;4064;48.132;11.366;2024-03-02T11:41:55;6.87;;;6.20;;
8042;SDS011;4064;48.132;11.366;2024-03-02T11:44:21;5.50;;;5.00;;
8042;SDS011;4064;48.132;11.366;2024-03-02T11:49:44;6.93;;;5.50;;
8042;SDS011;4064;48.132;11.366;2024-03-02T11:52:12;5.13;;;4.50;;
8042;SDS011;4064;48.132;11.366;2024-03-02T11:54:39;7.23;;;5.20;;
8042;SDS011;4064;48.132;11.366;2024-03-02T11:57:06;6.10;;;4.93;;
8042;SDS011;4064;48.132;11.366;2024-03-02T11:59:32;6.10;;;4.80;;
8042;SDS011;4064;48.132;11.366;2024-03-02T12:01:59;5.67;;;5.00;;
8042;SDS011;4064;48.132;11.366;2024-03-02T12:04:25;5.27;;;4.70;;
8042;SDS011;4064;48.132;11.366;2024-03-02T12:07:00;5.60;;;4.80;;
8042;SDS011;4064;48.132;11.366;2024-03-02T12:09:27;7.30;;;5.70;;
8042;SDS011;4064;48.132;11.366;2024-03-02T12:12:06;6.23;;;5.63;;
8042;SDS011;4064;48.132;11.366;2024-03-02T12:14:38;6.73;;;5.17;;
8042;SDS011;4064;48.132;11.366;2024-03-02T12:17:04;8.67;;;5.77;;
8042;SDS011;4064;48.132;11.366;2024-03-02T12:19:31;6.87;;;6.17;;
8042;SDS011;4064;48.132;11.366;2024-03-02T12:21:57;8.13;;;7.00;;
8042;SDS011;4064;48.132;11.366;2024-03-02T12:24:24;11.47;;;8.60;;
8042;SDS011;4064;48.132;11.366;2024-03-02T12:26:51;10.80;;;8.60;;
8042;SDS011;4064;48.132;11.366;2024-03-02T12:29:21;11.90;;;8.70;;
8042;SDS011;4064;48.132;11.366;2024-03-02T12:31:48;12.10;;;8.80;;
8042;SDS011;4064;48.132;11.366;2024-03-02T12:34:14;9.10;;;8.13;;
8042;SDS011;4064;48.132;11.366;2024-03-02T12:36:41;11.93;;;10.73;;
8042;SDS011;4064;48.132;11.366;2024-03-02T12:39:10;10.37;;;9.00;;
8042;SDS011;4064;48.132;11.366;2024-03-02T12:41:39;12.30;;;7.80;;
8042;SDS011;4064;48.132;11.366;2024-03-02T12:44:06;13.80;;;8.90;;
8042;SDS011;4064;48.132;11.366;2024-03-02T12:46:32;13.00;;;9.80;;
8042;SDS011;4064;48.132;11.366;2024-03-02T12:48:58;12.40;;;10.30;;
8042;SDS011;4064;48.132;11.366;2024-03-02T12:51:31;13.40;;;10.80;;
8042;SDS011;4064;48.132;11.366;2024-03-02T12:53:57;14.80;;;10.20;;
8042;SDS011;4064;48.132;11.366;2024-03-02T12:56:26;15.80;;;10.90;;
8042;SDS011;4064;48.132;11.366;2024-03-02T12:58:53;11.33;;;9.73;;
8042;SDS011;4064;48.132;11.366;2024-03-02T13:01:19;10.33;;;8.70;;
8042;SDS011;4064;48.132;11.366;2024-03-02T13:03:45;13.10;;;10.37;;
8042;SDS011;4064;48.132;11.366;2024-03-02T13:06:14;13.27;;;11.27;;
8042;SDS011;4064;48.132;11.366;2024-03-02T13:08:41;13.53;;;10.60;;
8042;SDS011;4064;48.132;11.366;2024-03-02T13:11:07;12.90;;;10.57;;
8042;SDS011;4064;48.132;11.366;2024-03-02T13:13:33;17.83;;;11.83;;
8042;SDS011;4064;48.132;11.366;2024-03-02T13:16:00;15.43;;;12.87;;
8042;SDS011;4064;48.132;11.366;2024-03-02T13:18:25;12.40;;;10.83;;
8042;SDS011;4064;48.132;11.366;2024-03-02T13:20:52;12.70;;;10.60;;
8042;SDS011;4064;48.132;11.366;2024-03-02T13:23:18;17.63;;;14.37;;
8042;SDS011;4064;48.132;11.366;2024-03-02T13:25:45;14.93;;;11.03;;
8042;SDS011;4064;48.132;11.366;2024-03-02T13:28:12;14.20;;;12.43;;
8042;SDS011;4064;48.132;11.366;2024-03-02T13:30:38;16.57;;;13.23;;
8042;SDS011;4064;48.132;11.366;2024-03-02T13:33:04;12.53;;;10.37;;
8042;SDS011;4064;48.132;11.366;2024-03-02T13:35:29;14.10;;;11.27;;
8042;SDS011;4064;48.132;11.366;2024-03-02T13:37:55;14.40;;;12.13;;
8042;SDS011;4064;48.132;11.366;2024-03-02T13:40:21;15.27;;;11.97;;
8042;SDS011;4064;48.132;11.366;2024-03-02T13:42:48;14.57;;;11.63;;
8042;SDS011;4064;48.132;11.366;2024-03-02T13:45:17;16.30;;;10.83;;
8042;SDS011;4064;48.132;11.366;2024-03-02T13:47:43;16.67;;;11.43;;
8042;SDS011;4064;48.132;11.366;2024-03-02T13:50:09;12.10;;;10.73;;
8042;SDS011;4064;48.132;11.366;2024-03-02T13:52:35;11.63;;;10.33;;
8042;SDS011;4064;48.132;11.366;2024-03-02T13:55:01;14.40;;;10.80;;
8042;SDS011;4064;48.132;11.366;2024-03-02T13:57:27;13.47;;;12.00;;
8042;SDS011;4064;48.132;11.366;2024-03-02T13:59:53;18.23;;;10.43;;
8042;SDS011;4064;48.132;11.366;2024-03-02T14:02:19;12.30;;;10.33;;
8042;SDS011;4064;48.132;11.366;2024-03-02T14:04:45;15.77;;;11.20;;
8042;SDS011;4064;48.132;11.366;2024-03-02T14:07:13;14.17;;;10.83;;
8042;SDS011;4064;48.132;11.366;2024-03-02T14:09:39;12.80;;;10.33;;
8042;SDS011;4064;48.132;11.366;2024-03-02T14:12:05;14.10;;;12.27;;
8042;SDS011;4064;48.132;11.366;2024-03-02T14:14:31;11.93;;;10.63;;
8042;SDS011;4064;48.132;11.366;2024-03-02T14:16:57;12.90;;;11.60;;
8042;SDS011;4064;48.132;11.366;2024-03-02T14:19:30;15.37;;;12.70;;
8042;SDS011;4064;48.132;11.366;2024-03-02T14:21:56;15.30;;;11.10;;
8042;SDS011;4064;48.132;11.366;2024-03-02T14:24:22;14.60;;;11.80;;
8042;SDS011;4064;48.132;11.366;2024-03-02T14:26:50;17.57;;;13.20;;
8042;SDS011;4064;48.132;11.366;2024-03-02T14:29:17;14.80;;;12.77;;
8042;SDS011;4064;48.132;11.366;2024-03-02T14:31:43;17.10;;;13.00;;
8042;SDS011;4064;48.132;11.366;2024-03-02T14:34:14;14.67;;;13.07;;
8042;SDS011;4064;48.132;11.366;2024-03-02T14:36:40;16.57;;;13.00;;
8042;SDS011;4064;48.132;11.366;2024-03-02T14:39:08;17.90;;;14.37;;
8042;SDS011;4064;48.132;11.366;2024-03-02T14:41:35;17.67;;;14.37;;
8042;SDS011;4064;48.132;11.366;2024-03-02T14:44:01;15.80;;;13.40;;
8042;SDS011;4064;48.132;11.366;2024-03-02T14:46:27;19.97;;;14.60;;
8042;SDS011;4064;48.132;11.366;2024-03-02T14:48:53;19.57;;;13.07;;
8042;SDS011;4064;48.132;11.366;2024-03-02T14:51:19;18.43;;;14.50;;
8042;SDS011;4064;48.132;11.366;2024-03-02T14:53:45;15.33;;;12.37;;
8042;SDS011;4064;48.132;11.366;2024-03-02T14:56:10;16.50;;;13.13;;
8042;SDS011;4064;48.132;11.366;2024-03-02T14:58:38;14.93;;;11.93;;
8042;SDS011;4064;48.132;11.366;2024-03-02T15:01:03;13.60;;;10.97;;
8042;SDS011;4064;48.132;11.366;2024-03-02T15:03:33;13.97;;;11.00;;